Time;durP1;ratioP1;P1;durP2;ratioP2;P2;SDS_P1;SDS_P2;PMS_P1;PMS_P2;Temp;Humidity;BMP_temperature;BMP_pressure;BME280_temperature;BME280_humidity;BME280_pressure;Samples;Min_cycle;Max_cycle;Signal;HPM_P1;HPM_P2
2022/06/12 00:01:05;;;;;;;7.32;4.22;;;17.90;99.90;;;;;;5074590;28;20213;-75
2022/06/12 00:03:33;;;;;;;5.55;3.88;;;17.90;99.90;;;;;;5075237;28;20198;-75
2022/06/12 00:06:01;;;;;;;6.25;3.88;;;17.90;99.90;;;;;;5074051;28;20217;-75
2022/06/12 00:08:31;;;;;;;5.78;3.72;;;17.90;99.90;;;;;;5074026;28;20225;-75
2022/06/12 00:11:00;;;;;;;5.57;3.42;;;17.90;99.90;;;;;;5073310;28;20202;-75
2022/06/12 00:13:31;;;;;;;5.15;3.58;;;17.70;99.90;;;;;;5068404;28;20208;-75
2022/06/12 00:15:59;;;;;;;6.60;3.60;;;17.80;99.90;;;;;;5074750;28;20217;-75
2022/06/12 00:18:26;;;;;;;4.93;3.47;;;17.80;99.90;;;;;;5057423;28;20218;-75
2022/06/12 00:21:10;;;;;;;4.47;3.45;;;17.60;99.90;;;;;;5067567;28;20213;-75
2022/06/12 00:23:38;;;;;;;4.18;3.70;;;17.80;99.90;;;;;;5056397;28;20210;-75
2022/06/12 00:26:07;;;;;;;5.88;3.75;;;17.70;99.90;;;;;;5062184;28;20207;-75
2022/06/12 00:28:34;;;;;;;5.75;3.42;;;17.70;99.90;;;;;;5054522;28;20210;-75
2022/06/12 00:31:01;;;;;;;6.10;3.40;;;17.70;99.90;;;;;;5063972;28;20207;-75
2022/06/12 00:33:28;;;;;;;4.80;3.67;;;17.60;99.90;;;;;;5067435;28;20210;-75
2022/06/12 00:35:55;;;;;;;4.50;3.50;;;17.60;99.90;;;;;;5059304;28;20213;-75
2022/06/12 00:38:22;;;;;;;5.85;3.55;;;17.70;99.90;;;;;;5074097;28;20191;-75
2022/06/12 00:40:49;;;;;;;6.93;3.70;;;17.70;99.90;;;;;;5061085;28;20203;-75
2022/06/12 00:43:17;;;;;;;5.85;3.72;;;17.60;99.90;;;;;;5072710;28;20210;-75
2022/06/12 00:45:50;;;;;;;5.22;3.58;;;17.60;99.90;;;;;;5062255;28;20205;-75
2022/06/12 00:48:20;;;;;;;5.35;3.35;;;17.50;99.90;;;;;;5071546;28;20226;-75
2022/06/12 00:50:52;;;;;;;7.95;4.00;;;17.60;99.90;;;;;;5063187;28;20568;-75
2022/06/12 00:53:24;;;;;;;4.75;3.63;;;17.60;99.90;;;;;;5054414;28;20199;-75
2022/06/12 00:55:59;;;;;;;5.55;3.33;;;17.60;99.90;;;;;;5056717;28;20581;-75
2022/06/12 00:58:31;;;;;;;4.57;3.30;;;17.40;99.90;;;;;;5054068;28;20683;-75
2022/06/12 01:00:58;;;;;;;6.40;3.55;;;17.50;99.90;;;;;;5066433;28;20202;-75
2022/06/12 01:03:26;;;;;;;6.68;3.75;;;17.60;99.90;;;;;;5073066;28;20210;-74
2022/06/12 01:08:44;;;;;;;8.77;3.28;;;17.60;99.90;;;;;;5063290;28;20210;-75
2022/06/12 01:11:15;;;;;;;6.50;2.97;;;17.70;99.90;;;;;;5072186;28;20221;-75
2022/06/12 01:13:46;;;;;;;6.28;3.00;;;17.60;99.90;;;;;;5073856;28;20668;-75
2022/06/12 01:16:16;;;;;;;7.18;3.40;;;17.50;99.90;;;;;;5072841;28;20205;-75
2022/06/12 01:18:48;;;;;;;7.18;3.05;;;17.50;99.90;;;;;;5067041;28;20205;-75
2022/06/12 01:21:47;;;;;;;6.40;2.75;;;17.60;99.90;;;;;;5061473;28;20202;-75
2022/06/12 01:24:37;;;;;;;5.15;2.67;;;17.50;99.90;;;;;;5039723;28;20210;-75
2022/06/12 01:27:43;;;;;;;5.20;2.85;;;17.60;99.90;;;;;;5069217;28;20567;-75
2022/06/12 01:30:16;;;;;;;6.55;2.92;;;17.60;99.90;;;;;;5050471;28;20656;-75
2022/06/12 01:32:52;;;;;;;5.55;2.75;;;17.60;99.90;;;;;;5073700;28;20554;-75
2022/06/12 01:35:23;;;;;;;7.93;2.92;;;17.60;99.90;;;;;;5054688;28;20249;-75
2022/06/12 01:38:02;;;;;;;8.20;2.50;;;17.50;99.90;;;;;;5068800;28;20198;-75
2022/06/12 01:40:36;;;;;;;8.40;3.28;;;17.50;99.90;;;;;;5053382;28;20238;-75
2022/06/12 01:43:11;;;;;;;5.65;3.05;;;17.50;99.90;;;;;;5070294;28;20203;-75
2022/06/12 01:45:46;;;;;;;7.88;3.33;;;17.40;99.90;;;;;;5055836;28;20795;-73
2022/06/12 01:48:23;;;;;;;6.88;2.65;;;17.40;99.90;;;;;;5072762;28;20225;-74
2022/06/12 01:50:57;;;;;;;8.65;3.10;;;17.40;99.90;;;;;;5065070;28;20216;-74
2022/06/12 01:53:35;;;;;;;5.78;2.97;;;17.20;99.90;;;;;;5071942;28;20213;-74
2022/06/12 01:56:07;;;;;;;9.27;2.75;;;17.20;99.90;;;;;;5047109;28;20210;-74
2022/06/12 01:58:45;;;;;;;11.18;3.58;;;17.10;99.90;;;;;;5071468;28;20201;-74
2022/06/12 02:01:18;;;;;;;7.50;3.22;;;16.90;99.90;;;;;;5072123;28;20305;-74
2022/06/12 02:03:50;;;;;;;6.82;3.38;;;16.70;99.90;;;;;;5072630;28;20271;-74
2022/06/12 02:06:22;;;;;;;10.65;3.13;;;16.80;99.90;;;;;;5071447;28;20577;-74
2022/06/12 02:08:55;;;;;;;5.78;3.17;;;16.70;99.90;;;;;;5068237;28;20222;-74
2022/06/12 02:14:16;;;;;;;5.97;3.00;;;16.60;99.90;;;;;;5069361;28;20328;-74
2022/06/12 02:16:48;;;;;;;5.47;2.72;;;16.50;99.90;;;;;;5072594;28;20201;-74
2022/06/12 02:19:19;;;;;;;6.38;3.08;;;16.50;99.90;;;;;;5068383;28;20191;-74
2022/06/12 02:21:50;;;;;;;7.57;3.20;;;16.50;99.90;;;;;;5067448;28;20209;-74
2022/06/12 02:24:21;;;;;;;3.78;2.72;;;16.40;99.90;;;;;;5070744;28;20563;-74
2022/06/12 02:26:59;;;;;;;6.15;3.00;;;16.40;99.90;;;;;;5071714;28;20198;-74
2022/06/12 02:29:31;;;;;;;9.32;3.33;;;16.20;99.90;;;;;;5052054;28;20202;-74
2022/06/12 02:32:01;;;;;;;8.32;3.28;;;16.20;99.90;;;;;;5063028;28;20209;-74
2022/06/12 02:34:33;;;;;;;5.95;2.80;;;16.20;99.90;;;;;;5052353;28;20207;-74
2022/06/12 02:37:05;;;;;;;4.93;2.70;;;16.20;99.90;;;;;;5061594;28;20302;-74
2022/06/12 02:39:38;;;;;;;5.95;3.00;;;16.10;99.90;;;;;;5052192;28;20202;-74
2022/06/12 02:42:08;;;;;;;4.93;3.00;;;16.10;99.90;;;;;;5062118;28;20210;-74
2022/06/12 02:44:42;;;;;;;8.60;3.30;;;15.90;99.90;;;;;;5051976;28;20199;-74
2022/06/12 02:47:15;;;;;;;7.03;2.75;;;15.80;99.90;;;;;;5062522;28;20633;-74
2022/06/12 02:49:46;;;;;;;5.50;2.70;;;15.70;99.90;;;;;;5067011;28;20210;-74
2022/06/12 02:52:19;;;;;;;8.45;3.10;;;15.60;99.90;;;;;;5070866;28;20300;-74
2022/06/12 02:54:53;;;;;;;6.68;2.80;;;15.60;99.90;;;;;;5053020;28;20657;-73
2022/06/12 02:57:30;;;;;;;5.00;2.97;;;15.40;99.90;;;;;;5058966;28;20199;-74
2022/06/12 03:00:06;;;;;;;6.23;2.73;;;15.50;99.90;;;;;;5052438;28;20213;-74
2022/06/12 03:02:39;;;;;;;6.67;3.37;;;15.60;99.90;;;;;;5070874;28;20672;-74
2022/06/12 03:05:18;;;;;;;9.88;3.40;;;15.60;99.90;;;;;;5050919;28;20584;-73
2022/06/12 03:07:45;;;;;;;6.20;3.23;;;15.40;99.90;;;;;;5063146;28;20578;-74
2022/06/12 03:10:17;;;;;;;8.03;3.13;;;15.60;99.90;;;;;;5052369;28;20199;-74
2022/06/12 03:12:44;;;;;;;10.20;3.55;;;15.40;99.90;;;;;;5070404;28;20198;-74
2022/06/12 03:15:29;;;;;;;7.97;3.93;;;15.30;99.90;;;;;;5050630;28;20202;-74
2022/06/12 03:17:58;;;;;;;7.93;2.93;;;15.40;99.90;;;;;;5053096;28;20689;-74
2022/06/12 03:20:33;;;;;;;7.18;3.38;;;15.40;99.90;;;;;;5051996;28;20583;-74
2022/06/12 03:23:08;;;;;;;9.00;3.37;;;15.50;99.90;;;;;;5054060;28;20661;-74
2022/06/12 03:25:44;;;;;;;6.53;3.40;;;15.30;99.90;;;;;;5072095;28;20679;-74
2022/06/12 03:28:16;;;;;;;7.37;3.40;;;15.40;99.90;;;;;;5068679;28;20226;-74
2022/06/12 03:30:48;;;;;;;11.63;3.95;;;15.50;99.90;;;;;;5051846;28;20203;-74
2022/06/12 03:33:21;;;;;;;6.07;3.50;;;15.50;99.90;;;;;;5054618;28;20206;-74
2022/06/12 03:35:55;;;;;;;8.90;3.77;;;15.50;99.90;;;;;;5071979;28;20568;-74
2022/06/12 03:38:30;;;;;;;6.63;3.80;;;15.50;99.90;;;;;;5068568;28;20195;-74
2022/06/12 03:41:05;;;;;;;8.13;3.77;;;15.40;99.90;;;;;;5051744;28;20561;-73
2022/06/12 03:43:43;;;;;;;11.95;4.13;;;15.40;99.90;;;;;;5055141;28;20201;-73
2022/06/12 03:46:22;;;;;;;8.63;3.95;;;15.40;99.90;;;;;;5069832;28;20206;-73
2022/06/12 03:48:58;;;;;;;8.70;3.90;;;15.40;99.90;;;;;;5051694;28;20219;-73
2022/06/12 03:51:36;;;;;;;7.17;3.40;;;15.40;99.90;;;;;;5054313;28;20190;-73
2022/06/12 03:54:10;;;;;;;9.00;4.53;;;15.40;99.90;;;;;;5054119;28;20686;-73
2022/06/12 03:59:35;;;;;;;8.87;3.50;;;15.20;99.90;;;;;;5051782;28;20699;-73
2022/06/12 04:02:05;;;;;;;10.00;3.67;;;15.40;99.90;;;;;;5058579;28;20567;-73
2022/06/12 04:04:35;;;;;;;6.55;3.40;;;15.50;99.90;;;;;;5071686;28;20217;-73
2022/06/12 04:07:07;;;;;;;7.20;3.37;;;15.60;99.90;;;;;;5069744;28;20679;-73
2022/06/12 04:09:39;;;;;;;10.95;3.60;;;15.70;99.90;;;;;;5071649;28;20211;-73
2022/06/12 04:12:10;;;;;;;10.57;4.50;;;16.20;99.90;;;;;;5067661;28;20199;-73
2022/06/12 04:14:41;;;;;;;7.75;3.92;;;16.40;99.90;;;;;;5054967;28;20680;-73
2022/06/12 04:17:08;;;;;;;7.38;3.65;;;16.80;99.90;;;;;;5072348;28;20198;-73
2022/06/12 04:22:22;;;;;;;7.88;3.28;;;18.20;99.90;;;;;;5053966;28;20201;-73
2022/06/12 04:24:55;;;;;;;8.65;3.83;;;17.60;99.90;;;;;;5067098;28;20199;-73
2022/06/12 04:27:26;;;;;;;10.30;3.80;;;17.30;99.90;;;;;;5057939;28;20219;-73
2022/06/12 04:29:56;;;;;;;9.18;3.92;;;17.20;99.90;;;;;;5074706;28;20703;-73
2022/06/12 04:32:24;;;;;;;11.95;3.78;;;16.80;99.90;;;;;;5074959;28;20581;-73
2022/06/12 04:34:53;;;;;;;10.20;5.35;;;16.70;99.90;;;;;;5062720;28;20199;-73
2022/06/12 04:37:22;;;;;;;8.23;3.75;;;16.80;99.90;;;;;;5054607;28;20252;-73
2022/06/12 04:39:51;;;;;;;8.23;4.15;;;16.70;99.90;;;;;;5065172;28;20205;-73
2022/06/12 04:42:24;;;;;;;9.38;4.28;;;16.40;99.90;;;;;;5074665;28;20206;-73
2022/06/12 04:44:51;;;;;;;13.60;5.10;;;16.40;99.90;;;;;;5063944;28;20203;-73
2022/06/12 04:47:21;;;;;;;7.07;3.80;;;16.30;99.90;;;;;;5054613;28;20680;-73
2022/06/12 04:49:49;;;;;;;11.55;3.95;;;16.20;99.90;;;;;;5063311;28;20198;-73
2022/06/12 04:52:18;;;;;;;10.35;4.28;;;16.20;99.90;;;;;;5074607;28;20203;-73
2022/06/12 04:54:46;;;;;;;7.80;4.07;;;16.30;99.90;;;;;;5057342;28;20203;-73
2022/06/12 04:57:16;;;;;;;12.73;4.47;;;16.40;99.90;;;;;;5073773;28;20198;-72
2022/06/12 04:59:43;;;;;;;8.88;4.22;;;16.30;99.90;;;;;;5058035;28;20282;-72
2022/06/12 05:02:10;;;;;;;8.88;4.32;;;16.40;99.90;;;;;;5056451;28;20206;-73
2022/06/12 05:04:37;;;;;;;10.98;4.53;;;16.60;99.90;;;;;;5069952;28;20202;-73
2022/06/12 05:07:07;;;;;;;11.57;4.13;;;16.40;99.90;;;;;;5072264;28;20210;-73
2022/06/12 05:09:39;;;;;;;7.65;4.57;;;16.60;99.90;;;;;;5072102;28;20232;-73
2022/06/12 05:12:08;;;;;;;9.73;3.80;;;17.30;99.90;;;;;;5076532;28;20240;-73
2022/06/12 05:14:35;;;;;;;8.90;3.88;;;18.20;99.90;;;;;;5072823;28;20252;-73
2022/06/12 05:17:04;;;;;;;9.50;4.10;;;18.10;99.90;;;;;;5071687;28;20217;-73
2022/06/12 05:19:36;;;;;;;7.38;3.88;;;17.70;99.90;;;;;;5073376;28;20194;-73
2022/06/12 05:22:04;;;;;;;11.57;3.90;;;17.60;99.90;;;;;;5071872;28;20216;-73
2022/06/12 05:24:31;;;;;;;9.02;4.10;;;17.50;99.90;;;;;;5069008;28;20202;-72
2022/06/12 05:27:00;;;;;;;13.70;4.20;;;17.50;99.90;;;;;;5071416;28;20218;-72
2022/06/12 05:29:30;;;;;;;11.15;4.10;;;17.50;99.90;;;;;;5068910;28;20218;-72
2022/06/12 05:31:57;;;;;;;11.63;4.15;;;17.40;99.90;;;;;;5071627;28;20232;-72
2022/06/12 05:34:26;;;;;;;7.75;3.97;;;17.40;99.90;;;;;;5070174;28;20202;-73
2022/06/12 05:36:53;;;;;;;10.73;4.22;;;17.40;99.90;;;;;;5071135;28;20280;-73
2022/06/12 05:39:21;;;;;;;10.50;4.43;;;17.10;99.90;;;;;;5072809;28;20675;-73
2022/06/12 05:41:48;;;;;;;12.07;3.90;;;17.30;99.90;;;;;;5067599;28;20516;-73
2022/06/12 05:44:17;;;;;;;12.55;4.47;;;17.20;99.90;;;;;;5072112;28;20206;-73
2022/06/12 05:46:45;;;;;;;7.88;3.92;;;18.20;99.90;;;;;;5072005;28;20202;-73
2022/06/12 05:49:12;;;;;;;12.35;4.30;;;18.30;99.90;;;;;;5067480;28;20608;-73
2022/06/12 05:51:40;;;;;;;12.18;4.78;;;18.20;99.90;;;;;;5071964;28;20202;-73
2022/06/12 05:54:07;;;;;;;10.00;3.65;;;18.60;99.90;;;;;;5070928;28;20215;-73
2022/06/12 05:56:35;;;;;;;7.88;4.00;;;19.20;99.90;;;;;;5066938;28;20202;-73
2022/06/12 05:59:02;;;;;;;10.02;4.28;;;18.80;99.90;;;;;;5069631;28;20224;-73
2022/06/12 06:01:31;;;;;;;10.75;4.65;;;18.50;99.90;;;;;;5070102;28;20208;-73
2022/06/12 06:03:58;;;;;;;11.55;4.20;;;18.50;99.90;;;;;;5070351;28;20206;-73
2022/06/12 06:06:29;;;;;;;10.85;5.40;;;18.60;99.90;;;;;;5067767;28;20202;-73
2022/06/12 06:08:56;;;;;;;12.77;4.43;;;18.20;99.90;;;;;;5068344;28;20704;-73
2022/06/12 06:11:23;;;;;;;8.13;4.32;;;18.30;99.90;;;;;;5067497;28;20207;-73
2022/06/12 06:13:50;;;;;;;9.20;4.30;;;18.70;99.90;;;;;;5069208;28;20211;-73
2022/06/12 06:16:19;;;;;;;9.30;4.32;;;19.00;99.90;;;;;;5065344;28;20198;-73
2022/06/12 06:18:47;;;;;;;12.07;4.93;;;19.00;99.90;;;;;;5069818;28;20195;-73
2022/06/12 06:21:15;;;;;;;12.32;4.57;;;18.80;99.90;;;;;;5068712;28;20202;-73
2022/06/12 06:23:42;;;;;;;10.68;4.05;;;18.80;99.90;;;;;;5065163;28;20235;-72
2022/06/12 06:26:10;;;;;;;9.60;4.55;;;18.80;99.90;;;;;;5068090;28;20644;-72
2022/06/12 06:28:39;;;;;;;11.25;4.88;;;18.90;99.90;;;;;;5066522;28;20225;-73
2022/06/12 06:31:07;;;;;;;11.02;4.10;;;18.90;99.90;;;;;;5068197;28;20309;-72
2022/06/12 06:33:33;;;;;;;11.57;4.82;;;18.90;99.90;;;;;;5066237;28;20194;-72
2022/06/12 06:36:02;;;;;;;11.02;4.57;;;18.90;99.90;;;;;;5068259;28;20210;-72
2022/06/12 06:38:28;;;;;;;7.72;4.07;;;18.80;99.90;;;;;;5068798;28;20562;-72
2022/06/12 06:40:55;;;;;;;11.55;3.85;;;19.00;99.90;;;;;;5071381;28;20224;-72
2022/06/12 06:43:22;;;;;;;9.68;4.13;;;19.10;99.90;;;;;;5070863;28;20212;-72
2022/06/12 06:48:33;;;;;;;8.85;4.03;;;19.20;99.90;;;;;;5055299;28;20754;-72
2022/06/12 06:51:02;;;;;;;11.82;4.28;;;19.20;99.90;;;;;;5070848;28;20210;-74
2022/06/12 06:53:29;;;;;;;13.20;4.43;;;19.10;99.90;;;;;;5072135;28;20229;-74
2022/06/12 06:55:55;;;;;;;8.43;3.75;;;19.00;99.90;;;;;;5061390;28;20214;-74
2022/06/12 06:58:25;;;;;;;10.13;4.32;;;19.10;99.90;;;;;;5071288;28;20202;-74
2022/06/12 07:00:54;;;;;;;11.00;4.65;;;19.20;99.90;;;;;;5062082;28;20213;-74
2022/06/12 07:03:21;;;;;;;11.15;4.03;;;19.10;99.90;;;;;;5054441;28;20203;-74
2022/06/12 07:05:49;;;;;;;9.07;3.70;;;19.20;99.90;;;;;;5055355;28;20207;-74
2022/06/12 07:08:18;;;;;;;9.38;3.83;;;19.40;99.90;;;;;;5060459;28;20501;-74
2022/06/12 07:10:45;;;;;;;6.78;3.55;;;19.50;99.90;;;;;;5055789;28;20210;-73
2022/06/12 07:13:12;;;;;;;9.10;3.70;;;19.60;99.90;;;;;;5071358;28;20202;-74
2022/06/12 07:15:39;;;;;;;10.93;3.85;;;19.60;99.90;;;;;;5068477;28;20198;-74
2022/06/12 07:18:08;;;;;;;8.68;3.38;;;19.70;99.90;;;;;;5072224;28;20204;-74
2022/06/12 07:20:38;;;;;;;11.70;3.65;;;19.70;99.90;;;;;;5062506;28;20207;-74
2022/06/12 07:23:07;;;;;;;10.93;3.05;;;19.80;99.90;;;;;;5071329;28;20202;-74
2022/06/12 07:25:41;;;;;;;11.30;3.38;;;19.90;99.90;;;;;;5058675;28;20522;-74
2022/06/12 07:28:09;;;;;;;8.73;3.50;;;20.00;99.90;;;;;;5064441;28;20206;-74
2022/06/12 07:30:36;;;;;;;9.00;2.95;;;19.90;96.10;;;;;;5050596;28;20209;-74
2022/06/12 07:33:04;;;;;;;6.53;2.58;;;20.00;96.10;;;;;;5064980;28;20225;-74
2022/06/12 07:35:31;;;;;;;7.30;2.30;;;20.00;88.90;;;;;;5060148;28;20202;-74
2022/06/12 07:37:58;;;;;;;9.95;3.42;;;20.00;79.00;;;;;;5054736;28;20230;-74
2022/06/12 07:40:30;;;;;;;12.43;2.90;;;20.10;83.30;;;;;;5050742;28;20195;-73
2022/06/12 07:42:58;;;;;;;8.07;2.40;;;20.10;83.30;;;;;;5060951;28;20203;-74
2022/06/12 07:45:26;;;;;;;10.05;2.65;;;20.30;81.70;;;;;;5069730;28;20649;-73
2022/06/12 07:47:52;;;;;;;14.02;2.80;;;20.30;74.60;;;;;;5067342;28;20217;-73
2022/06/12 07:50:20;;;;;;;11.10;3.13;;;20.40;76.70;;;;;;5060143;28;20684;-74
2022/06/12 07:52:47;;;;;;;9.52;2.60;;;20.30;77.40;;;;;;5047350;28;20207;-73
2022/06/12 07:55:15;;;;;;;11.15;4.13;;;20.20;78.50;;;;;;5056667;28;20214;-74
2022/06/12 07:57:43;;;;;;;7.15;2.90;;;20.30;81.10;;;;;;5048307;28;20207;-74
2022/06/12 08:00:14;;;;;;;13.77;3.67;;;20.40;83.00;;;;;;5066280;28;20211;-74
2022/06/12 08:02:42;;;;;;;6.13;2.67;;;20.60;80.80;;;;;;5071066;28;20219;-74
2022/06/12 08:05:09;;;;;;;8.07;3.08;;;20.50;80.00;;;;;;5069982;28;20745;-74
2022/06/12 08:07:36;;;;;;;10.52;2.75;;;20.30;77.50;;;;;;5074204;28;20203;-75
2022/06/12 08:10:04;;;;;;;11.82;2.90;;;20.60;80.70;;;;;;5056624;28;20222;-74
2022/06/12 08:12:32;;;;;;;8.88;2.92;;;20.80;79.40;;;;;;5073554;28;20210;-73
2022/06/12 08:14:59;;;;;;;10.02;2.65;;;21.00;75.50;;;;;;5054216;28;20581;-74
2022/06/12 08:17:27;;;;;;;11.95;3.00;;;21.10;74.20;;;;;;5073766;28;20652;-74
2022/06/12 08:22:38;;;;;;;8.57;3.15;;;21.30;76.80;;;;;;5073679;28;20577;-73
2022/06/12 08:25:06;;;;;;;11.05;3.17;;;21.20;78.60;;;;;;5056610;28;20215;-73
2022/06/12 08:27:33;;;;;;;9.95;2.95;;;21.20;75.40;;;;;;5074083;28;20691;-74
2022/06/12 08:30:00;;;;;;;10.65;3.13;;;21.30;78.40;;;;;;5073281;28;20237;-74
2022/06/12 08:32:28;;;;;;;8.77;2.60;;;21.20;71.80;;;;;;5074266;28;20614;-74
2022/06/12 08:34:59;;;;;;;8.82;2.63;;;21.30;69.60;;;;;;5060528;28;20206;-73
2022/06/12 08:37:28;;;;;;;9.90;2.40;;;21.20;67.90;;;;;;5074522;28;20202;-74
2022/06/12 08:39:55;;;;;;;12.00;3.92;;;21.20;69.90;;;;;;5072638;28;20209;-74
2022/06/12 08:42:25;;;;;;;9.18;3.70;;;21.40;70.50;;;;;;5074440;28;20202;-74
2022/06/12 08:44:54;;;;;;;8.98;3.00;;;21.40;70.70;;;;;;5072871;28;20264;-73
2022/06/12 08:47:36;;;;;;;8.45;2.80;;;21.40;73.10;;;;;;5073916;28;20214;-73
2022/06/12 08:50:12;;;;;;;8.90;2.83;;;21.70;67.20;;;;;;5072707;28;20222;-74
2022/06/12 08:52:43;;;;;;;7.15;2.40;;;22.20;61.20;;;;;;5074172;28;20202;-74
2022/06/12 08:55:17;;;;;;;6.65;2.13;;;22.70;56.80;;;;;;5072520;28;20206;-74
2022/06/12 08:57:51;;;;;;;6.50;2.45;;;22.60;55.60;;;;;;5073277;28;20206;-74
2022/06/12 09:00:20;;;;;;;6.82;2.67;;;23.00;53.80;;;;;;5072654;28;20202;-74
2022/06/12 09:02:49;;;;;;;6.47;1.95;;;22.80;52.30;;;;;;5073038;28;20202;-73
2022/06/12 09:05:19;;;;;;;8.10;2.30;;;23.50;53.80;;;;;;5072512;28;20579;-73
2022/06/12 09:07:51;;;;;;;8.38;2.55;;;23.20;49.60;;;;;;5073775;28;20229;-74
2022/06/12 09:10:27;;;;;;;8.60;2.42;;;23.90;45.90;;;;;;5069532;28;20221;-73
2022/06/12 09:13:01;;;;;;;9.93;2.47;;;24.00;42.90;;;;;;5065967;28;20198;-73
2022/06/12 09:15:38;;;;;;;6.13;2.35;;;23.90;42.10;;;;;;5034370;28;20203;-74
2022/06/12 09:18:16;;;;;;;5.72;1.73;;;23.20;43.60;;;;;;5067474;28;20201;-74
2022/06/12 09:20:50;;;;;;;8.20;2.35;;;23.60;45.50;;;;;;5072764;28;20337;-73
2022/06/12 09:23:31;;;;;;;9.00;2.70;;;23.80;42.10;;;;;;5073953;28;20652;-74
2022/06/12 09:26:07;;;;;;;7.03;2.30;;;24.70;44.40;;;;;;5062346;28;20213;-74
2022/06/12 09:28:41;;;;;;;9.65;2.90;;;24.80;41.40;;;;;;5058294;28;20202;-74
2022/06/12 09:31:14;;;;;;;5.40;2.15;;;24.80;40.00;;;;;;5066694;28;20599;-74
2022/06/12 09:33:54;;;;;;;6.72;2.75;;;25.10;36.70;;;;;;5073725;28;20706;-74
2022/06/12 09:36:35;;;;;;;4.90;2.10;;;25.30;33.10;;;;;;5053808;28;20207;-74
2022/06/12 09:39:08;;;;;;;7.28;2.78;;;25.20;32.60;;;;;;5071541;28;20637;-74
2022/06/12 09:41:46;;;;;;;9.05;2.22;;;25.40;32.60;;;;;;5053218;28;20249;-74
2022/06/12 09:44:18;;;;;;;8.15;2.13;;;25.30;34.20;;;;;;5059031;28;20210;-74
2022/06/12 09:46:56;;;;;;;4.82;1.92;;;26.00;32.20;;;;;;5072291;28;20202;-74
2022/06/12 09:49:43;;;;;;;5.80;2.20;;;26.00;28.00;;;;;;5072679;28;20230;-74
2022/06/12 09:52:36;;;;;;;5.47;2.20;;;26.20;27.80;;;;;;5057460;28;20219;-73
2022/06/12 09:55:08;;;;;;;6.03;1.83;;;25.90;25.10;;;;;;5053611;28;20217;-74
2022/06/12 09:57:41;;;;;;;9.50;3.42;;;25.30;28.10;;;;;;5071923;28;20202;-74
2022/06/12 10:00:16;;;;;;;7.50;2.83;;;24.60;28.10;;;;;;5067422;28;20198;-74
2022/06/12 10:02:49;;;;;;;7.57;2.72;;;24.40;29.30;;;;;;5072406;28;20245;-74
2022/06/12 10:05:24;;;;;;;4.95;2.13;;;24.50;30.10;;;;;;5070866;28;20203;-74
2022/06/12 10:07:57;;;;;;;7.47;2.67;;;24.30;32.00;;;;;;5063676;28;20204;-74
2022/06/12 10:10:31;;;;;;;4.18;2.03;;;25.30;31.70;;;;;;5068785;28;20221;-74
2022/06/12 10:13:07;;;;;;;6.50;2.53;;;25.30;28.50;;;;;;5070796;28;20218;-74
2022/06/12 10:15:39;;;;;;;7.38;2.00;;;25.30;29.20;;;;;;5069760;28;20255;-74
2022/06/12 10:18:11;;;;;;;7.75;2.60;;;25.80;29.90;;;;;;5073036;28;20212;-74
2022/06/12 10:20:44;;;;;;;6.93;2.47;;;25.60;28.80;;;;;;5069440;28;20198;-74
2022/06/12 10:23:11;;;;;;;6.13;2.03;;;25.30;29.00;;;;;;5068657;28;20206;-74
2022/06/12 10:25:41;;;;;;;7.68;2.00;;;25.70;29.40;;;;;;5067573;28;20644;-74
2022/06/12 10:28:23;;;;;;;4.88;2.05;;;25.60;27.40;;;;;;5067018;28;20295;-74
2022/06/12 10:31:04;;;;;;;7.22;2.17;;;25.70;25.60;;;;;;5069804;28;20244;-74
2022/06/12 10:33:43;;;;;;;8.88;2.20;;;25.60;26.20;;;;;;5068503;28;20202;-74
2022/06/12 10:36:21;;;;;;;4.32;2.10;;;25.90;25.20;;;;;;5071032;28;20202;-73
2022/06/12 10:38:49;;;;;;;8.27;2.65;;;25.90;25.90;;;;;;5064340;28;20237;-74
2022/06/12 10:41:25;;;;;;;5.82;2.25;;;26.30;25.40;;;;;;5066329;28;20657;-74
2022/06/12 10:43:56;;;;;;;5.90;2.20;;;26.60;24.40;;;;;;5069680;28;20206;-74
2022/06/12 10:46:26;;;;;;;6.10;2.47;;;26.50;22.80;;;;;;5065630;28;20251;-74
2022/06/12 10:48:59;;;;;;;5.30;2.03;;;26.60;24.50;;;;;;5069052;28;20675;-74
2022/06/12 10:51:36;;;;;;;6.15;2.42;;;26.20;23.80;;;;;;5066772;28;20699;-74
2022/06/12 10:54:12;;;;;;;5.82;2.47;;;26.70;23.50;;;;;;5068052;28;20570;-74
2022/06/12 10:56:45;;;;;;;8.23;2.47;;;26.80;24.60;;;;;;5070153;28;20293;-74
2022/06/12 10:59:30;;;;;;;4.53;2.33;;;25.50;22.80;;;;;;5069962;28;20206;-74
2022/06/12 11:02:25;;;;;;;5.43;2.28;;;25.70;24.90;;;;;;5069084;28;20206;-74
2022/06/12 11:05:07;;;;;;;4.97;2.33;;;26.00;21.50;;;;;;5064779;28;20198;-74
2022/06/12 11:07:42;;;;;;;8.00;2.55;;;26.30;20.70;;;;;;5065064;28;20572;-73
2022/06/12 11:10:21;;;;;;;6.95;2.17;;;26.40;19.70;;;;;;5054438;28;20215;-74
2022/06/12 11:13:09;;;;;;;4.30;1.92;;;26.70;21.40;;;;;;5065549;28;20201;-74
2022/06/12 11:15:56;;;;;;;9.57;2.50;;;27.00;19.50;;;;;;5068290;28;20202;-74
2022/06/12 11:18:30;;;;;;;7.63;2.60;;;26.70;20.20;;;;;;5063807;28;20194;-74
2022/06/12 11:21:05;;;;;;;7.72;2.58;;;26.80;21.00;;;;;;5067457;28;20225;-74
2022/06/12 11:23:59;;;;;;;5.90;2.17;;;26.50;19.70;;;;;;5073733;28;20197;-74
2022/06/12 11:26:39;;;;;;;5.70;2.13;;;27.20;20.90;;;;;;5069185;28;20664;-74
2022/06/12 11:29:25;;;;;;;7.55;2.30;;;26.60;19.10;;;;;;5070310;28;20660;-74
2022/06/12 11:32:06;;;;;;;5.82;2.22;;;26.80;19.20;;;;;;5073544;28;20815;-73
2022/06/12 11:34:51;;;;;;;5.45;2.47;;;26.90;20.00;;;;;;5070735;28;20194;-74
2022/06/12 11:37:45;;;;;;;7.40;2.13;;;26.80;20.10;;;;;;5058101;28;20293;-74
2022/06/12 11:40:24;;;;;;;6.38;2.28;;;26.70;19.50;;;;;;5073349;28;20594;-74
2022/06/12 11:43:02;;;;;;;6.00;2.30;;;26.80;21.80;;;;;;5070117;28;20287;-74
2022/06/12 11:45:41;;;;;;;7.03;2.60;;;27.30;22.10;;;;;;5071351;28;20205;-74
2022/06/12 11:48:28;;;;;;;7.55;2.92;;;27.00;18.80;;;;;;5073135;28;20209;-74
2022/06/12 11:51:03;;;;;;;8.38;2.42;;;27.00;19.30;;;;;;5057728;28;20222;-74
2022/06/12 11:53:43;;;;;;;6.97;2.47;;;27.00;21.60;;;;;;5068455;28;20296;-74
2022/06/12 11:56:21;;;;;;;7.40;2.53;;;26.90;19.30;;;;;;5072857;28;20569;-74
2022/06/12 11:59:03;;;;;;;4.90;2.20;;;27.60;22.00;;;;;;5072599;28;20557;-74
2022/06/12 12:01:38;;;;;;;4.97;1.85;;;27.00;18.90;;;;;;5052997;28;20289;-74
2022/06/12 12:04:30;;;;;;;8.90;2.63;;;27.20;22.00;;;;;;5053467;28;20216;-74
2022/06/12 12:07:19;;;;;;;7.85;2.42;;;27.50;17.70;;;;;;5056527;28;20210;-74
2022/06/12 12:09:57;;;;;;;6.53;2.47;;;27.50;19.80;;;;;;5067186;28;20285;-74
2022/06/12 12:12:31;;;;;;;11.52;3.00;;;27.70;18.10;;;;;;5068355;28;20225;-74
2022/06/12 12:15:01;;;;;;;6.07;2.47;;;27.20;17.00;;;;;;5052970;28;20713;-74
2022/06/12 12:17:32;;;;;;;6.88;2.33;;;27.30;16.60;;;;;;5070624;28;20567;-74
2022/06/12 12:20:05;;;;;;;5.82;2.30;;;27.40;15.90;;;;;;5069625;28;20214;-74
2022/06/12 12:22:38;;;;;;;7.13;2.45;;;27.20;15.90;;;;;;5072109;28;20202;-74
2022/06/12 12:25:24;;;;;;;7.18;2.60;;;27.20;18.30;;;;;;5069958;28;20206;-74
2022/06/12 12:27:54;;;;;;;8.27;2.60;;;27.00;15.50;;;;;;5071298;28;20300;-74
2022/06/12 12:30:24;;;;;;;5.03;2.08;;;26.80;16.70;;;;;;5071196;28;20211;-74
2022/06/12 12:32:54;;;;;;;8.50;2.83;;;26.70;18.10;;;;;;5069313;28;20209;-74
2022/06/12 12:41:13;;;;;;;5.30;2.30;;;26.90;15.70;;;;;;5069124;28;20201;-74
2022/06/12 12:43:56;;;;;;;7.82;1.98;;;27.60;16.20;;;;;;5066425;28;20220;-74
2022/06/12 12:46:25;;;;;;;5.68;2.30;;;27.20;14.80;;;;;;5070169;28;20198;-74
2022/06/12 12:48:54;;;;;;;12.38;2.80;;;27.20;15.90;;;;;;5070141;28;20637;-74
2022/06/12 12:51:27;;;;;;;5.45;2.40;;;26.60;15.90;;;;;;5069473;28;20775;-74
2022/06/12 12:54:06;;;;;;;6.63;1.92;;;26.80;16.40;;;;;;5067736;28;20202;-74
2022/06/12 12:56:35;;;;;;;5.85;2.53;;;27.20;14.90;;;;;;5072334;28;20202;-74
2022/06/12 12:59:08;;;;;;;4.32;2.20;;;27.40;14.60;;;;;;5071867;28;20645;-74
2022/06/12 13:01:38;;;;;;;5.15;2.20;;;26.70;13.40;;;;;;5071473;28;20209;-74
2022/06/12 13:04:17;;;;;;;6.38;2.03;;;27.10;15.40;;;;;;5063954;28;20206;-74
2022/06/12 13:07:12;;;;;;;4.30;1.87;;;27.40;11.50;;;;;;5028339;28;1144537;-74
2022/06/12 13:10:10;;;;;;;4.10;1.85;;;27.20;11.70;;;;;;5068026;28;20457;-74
2022/06/12 13:13:05;;;;;;;4.10;1.63;;;26.70;10.70;;;;;;5064898;28;20219;-74
2022/06/12 13:15:46;;;;;;;4.78;1.50;;;27.00;10.50;;;;;;5053927;28;20554;-77
2022/06/12 13:18:27;;;;;;;5.00;1.88;;;26.80;12.20;;;;;;5070133;28;20667;-77
2022/06/12 13:21:10;;;;;;;4.00;1.90;;;27.10;11.40;;;;;;5067639;28;20197;-77
2022/06/12 13:23:58;;;;;;;4.97;2.10;;;27.20;11.60;;;;;;5052408;28;20206;-77
2022/06/12 13:26:27;;;;;;;2.83;1.25;;;27.70;13.30;;;;;;5069867;28;20202;-77
2022/06/12 13:28:57;;;;;;;4.60;1.55;;;27.30;10.00;;;;;;5069723;28;20651;-78
2022/06/12 13:31:28;;;;;;;4.40;1.75;;;26.90;9.20;;;;;;5072330;28;20229;-77
2022/06/12 13:33:57;;;;;;;3.08;1.20;;;26.90;10.30;;;;;;5071708;28;20198;-77
2022/06/12 13:36:27;;;;;;;2.20;1.13;;;26.70;7.90;;;;;;5065259;28;20328;-77